createdAt,value
2022-12-22T00:02:01.258Z,15.32
2022-12-22T00:04:47.088Z,18.58
2022-12-22T00:07:32.664Z,24.13
2022-12-22T00:10:18.523Z,14.50
2022-12-22T00:13:05.347Z,16.25
2022-12-22T00:15:54.153Z,13.50
2022-12-22T00:18:40.034Z,10.82
2022-12-22T00:21:25.486Z,8.13
2022-12-22T00:24:11.130Z,22.42
2022-12-22T00:26:56.771Z,15.70
2022-12-22T00:29:54.098Z,5.43
2022-12-22T00:32:41.399Z,13.93
2022-12-22T00:35:36.242Z,16.35
2022-12-22T00:38:29.012Z,12.52
2022-12-22T00:41:14.759Z,9.55
2022-12-22T00:44:00.099Z,16.98
2022-12-22T00:46:47.796Z,12.43
2022-12-22T00:49:34.083Z,29.23
2022-12-22T00:52:20.205Z,12.15
2022-12-22T00:55:05.999Z,16.70
2022-12-22T00:57:51.778Z,8.93
2022-12-22T01:00:38.190Z,10.55
2022-12-22T01:03:29.318Z,13.05
2022-12-22T01:06:18.006Z,9.07
2022-12-22T01:09:04.064Z,21.33
2022-12-22T01:11:49.846Z,17.92
2022-12-22T01:14:35.931Z,10.57
2022-12-22T01:17:21.711Z,11.73
2022-12-22T01:20:08.608Z,8.75
2022-12-22T01:22:54.284Z,11.63
2022-12-22T01:25:39.758Z,11.38
2022-12-22T01:28:25.595Z,11.30
2022-12-22T01:31:11.206Z,7.65
2022-12-22T01:33:56.775Z,13.90
2022-12-22T01:36:43.964Z,5.70
2022-12-22T01:39:29.203Z,10.25
2022-12-22T01:42:15.080Z,13.10
2022-12-22T01:45:00.594Z,15.52
2022-12-22T01:47:53.340Z,10.57
2022-12-22T01:50:47.729Z,11.70
2022-12-22T01:53:40.054Z,12.68
2022-12-22T01:56:26.584Z,8.85
2022-12-22T01:59:15.880Z,11.23
2022-12-22T02:02:03.509Z,9.88
2022-12-22T02:04:54.355Z,14.50
2022-12-22T02:07:53.551Z,13.43
2022-12-22T02:10:58.812Z,12.95
2022-12-22T02:13:51.458Z,13.85
2022-12-22T02:16:44.229Z,12.40
2022-12-22T02:19:42.651Z,10.85
2022-12-22T02:22:39.879Z,15.15
2022-12-22T02:25:32.670Z,12.88
2022-12-22T02:28:20.991Z,10.55
2022-12-22T02:31:08.404Z,14.50
2022-12-22T02:33:54.156Z,9.73
2022-12-22T02:36:47.328Z,12.50
2022-12-22T02:39:41.720Z,12.13
2022-12-22T02:42:35.462Z,14.45
2022-12-22T02:45:34.863Z,14.57
2022-12-22T02:48:25.327Z,15.82
2022-12-22T02:51:15.429Z,10.73
2022-12-22T02:54:00.872Z,8.85
2022-12-22T02:56:46.617Z,18.02
2022-12-22T02:59:31.940Z,13.20
2022-12-22T03:02:18.834Z,9.18
2022-12-22T03:05:04.570Z,10.48
2022-12-22T03:07:50.091Z,11.25
2022-12-22T03:10:35.651Z,5.00
2022-12-22T03:13:21.367Z,7.50
2022-12-22T03:16:07.138Z,8.18
2022-12-22T03:18:54.234Z,7.20
2022-12-22T03:21:39.902Z,2.78
2022-12-22T03:24:26.294Z,8.05
2022-12-22T03:26:55.761Z,9.13
2022-12-22T03:29:23.856Z,4.00
2022-12-22T03:31:52.034Z,4.70
2022-12-22T03:34:21.737Z,10.68
2022-12-22T03:36:49.981Z,2.83
2022-12-22T03:39:18.075Z,3.08
2022-12-22T03:42:03.917Z,6.80
2022-12-22T03:44:49.500Z,5.97
2022-12-22T03:47:17.726Z,6.47
2022-12-22T03:49:47.178Z,9.52
2022-12-22T03:52:15.324Z,4.05
2022-12-22T03:54:43.511Z,6.32
2022-12-22T03:57:11.729Z,7.88
2022-12-22T03:59:39.934Z,6.18
2022-12-22T04:02:08.672Z,6.40
2022-12-22T04:04:37.077Z,5.30
2022-12-22T04:07:06.634Z,3.33
2022-12-22T04:09:35.399Z,11.02
2022-12-22T04:12:32.198Z,4.97
2022-12-22T04:15:00.361Z,2.88
2022-12-22T04:17:28.441Z,5.57
2022-12-22T04:19:56.643Z,8.27
2022-12-22T04:22:26.545Z,4.50
2022-12-22T04:24:54.663Z,3.90
2022-12-22T04:27:22.926Z,4.68
2022-12-22T04:29:51.020Z,7.25
2022-12-22T04:32:19.399Z,6.40
2022-12-22T04:34:47.667Z,5.85
2022-12-22T04:37:17.678Z,6.20
2022-12-22T04:39:47.430Z,4.90
2022-12-22T04:42:15.618Z,5.40
2022-12-22T04:44:43.779Z,10.93
2022-12-22T04:47:12.008Z,9.63
2022-12-22T04:49:40.097Z,14.30
2022-12-22T04:52:08.465Z,12.18
2022-12-22T04:54:36.542Z,11.77
2022-12-22T04:57:06.118Z,17.33
2022-12-22T04:59:34.232Z,23.52
2022-12-22T05:02:02.434Z,14.38
2022-12-22T05:04:30.798Z,15.30
2022-12-22T05:06:58.958Z,19.35
2022-12-22T05:09:27.103Z,15.48
2022-12-22T05:11:55.308Z,9.60
2022-12-22T05:14:24.756Z,9.05
2022-12-22T05:16:53.092Z,14.20
2022-12-22T05:19:24.870Z,14.70
2022-12-22T05:21:55.632Z,11.57
2022-12-22T05:24:23.698Z,18.73
2022-12-22T05:26:51.855Z,18.02
2022-12-22T05:29:20.020Z,16.02
2022-12-22T05:31:49.557Z,17.45
2022-12-22T05:34:17.799Z,16.60
2022-12-22T05:36:45.942Z,19.67
2022-12-22T05:39:14.079Z,24.00
2022-12-22T05:41:42.236Z,16.73
2022-12-22T05:44:10.287Z,16.98
2022-12-22T05:46:38.629Z,19.85
2022-12-22T05:49:08.325Z,17.70
2022-12-22T05:51:36.530Z,15.60
2022-12-22T05:54:04.886Z,14.98
2022-12-22T05:56:33.002Z,22.77
2022-12-22T05:59:01.209Z,12.38
2022-12-22T06:01:29.460Z,24.63
2022-12-22T06:04:00.422Z,18.33
2022-12-22T06:06:30.352Z,19.60
2022-12-22T06:08:58.487Z,13.63
2022-12-22T06:11:26.725Z,17.02
2022-12-22T06:13:54.855Z,18.80
2022-12-22T06:16:23.176Z,15.77
2022-12-22T06:18:51.415Z,21.80
2022-12-22T06:21:19.507Z,17.95
2022-12-22T06:23:49.001Z,19.45
2022-12-22T06:26:17.287Z,15.57
2022-12-22T06:28:45.535Z,21.42
2022-12-22T06:31:13.886Z,14.57
2022-12-22T06:33:42.171Z,11.63
2022-12-22T06:36:10.643Z,12.55
2022-12-22T06:38:38.793Z,11.63
2022-12-22T06:41:08.485Z,21.63
2022-12-22T06:43:35.631Z,18.92
2022-12-22T06:46:03.924Z,17.85
2022-12-22T06:48:32.862Z,19.42
2022-12-22T06:51:01.569Z,9.85
2022-12-22T06:53:29.690Z,24.40
2022-12-22T06:55:57.890Z,16.88
2022-12-22T06:58:27.393Z,14.32
2022-12-22T07:00:57.449Z,15.90
2022-12-22T07:03:25.722Z,11.52
2022-12-22T07:05:53.991Z,14.63
2022-12-22T07:08:22.357Z,13.30
2022-12-22T07:10:59.554Z,20.90
2022-12-22T07:13:32.037Z,16.00
2022-12-22T07:16:01.628Z,14.93
2022-12-22T07:18:32.257Z,13.45
2022-12-22T07:21:01.537Z,14.70
2022-12-22T07:23:29.851Z,10.98
2022-12-22T07:25:58.470Z,16.23
2022-12-22T07:28:28.125Z,12.18
2022-12-22T07:30:57.046Z,20.92
2022-12-22T07:33:26.258Z,10.82
2022-12-22T07:36:06.936Z,13.05
2022-12-22T07:38:37.185Z,13.20
2022-12-22T07:41:25.981Z,14.55
2022-12-22T07:43:55.525Z,12.75
2022-12-22T07:46:24.142Z,11.13
2022-12-22T07:49:09.769Z,12.35
2022-12-22T07:51:39.615Z,16.90
2022-12-22T07:54:09.112Z,9.20
2022-12-22T07:56:37.485Z,8.82
2022-12-22T07:59:07.695Z,10.95
2022-12-22T08:01:36.014Z,5.18
2022-12-22T08:04:04.340Z,6.38
2022-12-22T08:06:34.098Z,13.55
2022-12-22T08:09:02.838Z,9.48
2022-12-22T08:11:30.991Z,10.13
2022-12-22T08:14:01.589Z,8.48
2022-12-22T08:16:31.783Z,11.85
2022-12-22T08:18:59.944Z,12.80
2022-12-22T08:21:28.038Z,27.23
2022-12-22T08:23:56.571Z,19.52
2022-12-22T08:26:30.008Z,18.73
2022-12-22T08:29:03.655Z,15.25
2022-12-22T08:31:33.437Z,9.18
2022-12-22T08:34:04.591Z,14.10
2022-12-22T08:36:35.828Z,19.10
2022-12-22T08:39:04.033Z,14.35
2022-12-22T08:41:51.234Z,19.27
2022-12-22T08:44:21.699Z,14.25
2022-12-22T08:46:52.060Z,11.50
2022-12-22T08:49:20.665Z,12.55
2022-12-22T08:51:49.271Z,10.43
2022-12-22T08:54:18.171Z,13.75
2022-12-22T08:56:47.135Z,5.20
2022-12-22T08:59:15.655Z,6.38
2022-12-22T09:01:48.190Z,12.50
2022-12-22T09:04:19.611Z,8.95
2022-12-22T09:06:47.852Z,7.63
2022-12-22T09:09:17.962Z,7.70
2022-12-22T09:11:46.173Z,11.93
2022-12-22T09:14:14.767Z,9.70
2022-12-22T09:16:43.152Z,10.75
2022-12-22T09:19:11.536Z,9.02
2022-12-22T09:21:41.151Z,8.80
2022-12-22T09:24:10.024Z,16.70
2022-12-22T09:26:38.117Z,13.13
2022-12-22T09:29:06.827Z,12.85
2022-12-22T09:31:35.262Z,8.52
2022-12-22T09:34:03.594Z,12.85
2022-12-22T09:36:33.821Z,8.30
2022-12-22T09:39:08.218Z,12.25
2022-12-22T09:41:38.774Z,5.85
2022-12-22T09:44:14.466Z,12.43
2022-12-22T09:46:43.044Z,11.30
2022-12-22T09:49:15.711Z,6.85
2022-12-22T09:51:47.352Z,16.15
2022-12-22T09:54:17.318Z,12.20
2022-12-22T09:56:45.562Z,7.63
2022-12-22T09:59:15.596Z,10.27
2022-12-22T10:01:58.787Z,15.57
2022-12-22T10:04:40.966Z,10.90
2022-12-22T10:07:21.346Z,10.23
2022-12-22T10:09:51.972Z,13.77
2022-12-22T10:12:23.954Z,15.55
2022-12-22T10:14:54.643Z,14.63
2022-12-22T10:17:25.764Z,7.93
2022-12-22T10:19:55.795Z,9.05
2022-12-22T10:22:30.825Z,14.77
2022-12-22T10:25:02.411Z,9.95
2022-12-22T10:30:23.317Z,14.90
2022-12-22T10:33:06.356Z,11.70
2022-12-22T10:35:47.298Z,13.88
2022-12-22T10:38:21.284Z,14.25
2022-12-22T10:41:00.181Z,11.88
2022-12-22T10:43:33.059Z,11.10
2022-12-22T10:46:03.544Z,11.30
2022-12-22T10:48:35.541Z,12.73
2022-12-22T10:51:08.036Z,15.45
2022-12-22T10:53:47.596Z,13.00
2022-12-22T10:56:25.706Z,5.25
2022-12-22T10:58:56.124Z,11.52
2022-12-22T11:01:26.745Z,13.60
2022-12-22T11:03:55.228Z,7.63
2022-12-22T11:06:23.472Z,12.05
2022-12-22T11:08:52.179Z,11.00
2022-12-22T11:11:38.006Z,12.10
2022-12-22T11:14:18.115Z,10.32
2022-12-22T11:16:52.182Z,12.98
2022-12-22T11:19:49.704Z,14.60
2022-12-22T11:22:32.526Z,14.50
2022-12-22T11:25:16.140Z,11.77
2022-12-22T11:27:56.953Z,14.05
2022-12-22T11:30:32.307Z,15.40
2022-12-22T11:33:17.586Z,14.57
2022-12-22T11:35:59.252Z,18.50
2022-12-22T11:41:15.573Z,12.52
2022-12-22T11:43:58.129Z,9.20
2022-12-22T11:46:32.481Z,14.98
2022-12-22T11:49:13.768Z,12.48
2022-12-22T11:51:58.208Z,16.05
2022-12-22T11:54:50.275Z,12.25
2022-12-22T11:57:29.338Z,10.70
2022-12-22T12:00:04.759Z,15.95
2022-12-22T12:03:17.086Z,10.43
2022-12-22T12:06:01.612Z,12.07
2022-12-22T12:08:42.762Z,9.50
2022-12-22T12:11:20.499Z,14.15
2022-12-22T12:13:55.681Z,9.57
2022-12-22T12:16:37.592Z,10.00
2022-12-22T12:19:43.133Z,8.27
2022-12-22T12:22:18.438Z,8.43
2022-12-22T12:24:58.633Z,8.82
2022-12-22T12:27:56.668Z,8.98
2022-12-22T12:30:38.002Z,18.13
2022-12-22T12:33:15.278Z,8.32
2022-12-22T12:36:02.467Z,11.73
2022-12-22T12:39:06.984Z,10.48
2022-12-22T12:41:34.180Z,13.98
2022-12-22T12:44:04.486Z,13.05
2022-12-22T12:46:59.908Z,18.83
2022-12-22T12:49:55.188Z,11.68
2022-12-22T12:53:07.611Z,11.75
2022-12-22T12:55:53.193Z,7.45
2022-12-22T12:58:50.665Z,6.22
2022-12-22T13:01:56.213Z,11.48
2022-12-22T13:05:13.111Z,9.20
2022-12-22T13:08:18.670Z,7.20
2022-12-22T13:10:49.862Z,8.40
2022-12-22T13:13:49.668Z,12.75
2022-12-22T13:16:27.412Z,10.90
2022-12-22T13:19:00.069Z,15.00
2022-12-22T13:21:55.068Z,11.02
2022-12-22T13:24:29.935Z,7.82
2022-12-22T13:27:07.054Z,9.07
2022-12-22T13:29:44.317Z,10.73
2022-12-22T13:32:28.543Z,12.63
2022-12-22T13:35:32.564Z,8.10
2022-12-22T13:38:01.696Z,6.30
2022-12-22T13:40:33.181Z,8.02
2022-12-22T13:45:36.860Z,8.27
2022-12-22T13:48:10.529Z,8.60
2022-12-22T13:50:44.067Z,6.93
2022-12-22T13:53:34.448Z,7.78
2022-12-22T13:56:09.074Z,6.75
2022-12-22T13:58:40.525Z,8.10
2022-12-22T14:04:00.720Z,11.95
2022-12-22T14:06:31.582Z,8.73
2022-12-22T14:09:14.297Z,8.40
2022-12-22T14:11:51.059Z,6.80
2022-12-22T14:14:24.134Z,10.75
2022-12-22T14:16:54.061Z,5.53
2022-12-22T14:19:23.972Z,8.85
2022-12-22T14:22:02.306Z,10.43
2022-12-22T14:24:38.441Z,7.80
2022-12-22T14:27:19.096Z,6.18
2022-12-22T14:29:47.386Z,8.60
2022-12-22T14:32:35.648Z,5.47
2022-12-22T14:35:03.844Z,8.80
2022-12-22T14:37:33.167Z,4.90
2022-12-22T14:40:01.529Z,7.47
2022-12-22T14:42:32.530Z,4.18
2022-12-22T14:45:00.896Z,5.75
2022-12-22T14:47:29.064Z,7.25
2022-12-22T14:49:59.929Z,8.32
2022-12-22T14:52:39.083Z,6.72
2022-12-22T14:55:22.358Z,7.50
2022-12-22T14:57:56.275Z,7.95
2022-12-22T15:00:34.212Z,7.60
2022-12-22T15:03:04.916Z,13.38
2022-12-22T15:05:36.392Z,12.35
2022-12-22T15:10:43.777Z,8.75
2022-12-22T15:13:19.726Z,13.68
2022-12-22T15:15:48.048Z,10.95
2022-12-22T15:18:16.969Z,16.10
2022-12-22T15:20:45.133Z,9.55
2022-12-22T15:23:17.233Z,13.82
2022-12-22T15:25:46.008Z,9.85
2022-12-22T15:28:15.903Z,9.55
2022-12-22T15:30:44.403Z,7.82
2022-12-22T15:33:15.220Z,12.63
2022-12-22T15:35:44.350Z,12.10
2022-12-22T15:38:18.515Z,13.07
2022-12-22T15:40:46.793Z,11.45
2022-12-22T15:43:53.989Z,16.08
2022-12-22T15:46:07.803Z,12.48
2022-12-22T15:48:38.185Z,11.67
2022-12-22T15:51:08.984Z,18.00
2022-12-22T15:53:38.356Z,10.82
2022-12-22T15:56:10.102Z,15.13
2022-12-22T15:58:42.125Z,10.27
2022-12-22T16:01:11.956Z,12.02
2022-12-22T16:03:40.337Z,18.77
2022-12-22T16:06:14.415Z,16.65
2022-12-22T16:08:47.169Z,12.32
2022-12-22T16:11:15.435Z,11.60
2022-12-22T16:13:45.540Z,10.98
2022-12-22T16:16:13.794Z,13.90
2022-12-22T16:18:42.054Z,13.25
2022-12-22T16:21:16.591Z,18.83
2022-12-22T16:23:47.508Z,15.60
2022-12-22T16:26:19.447Z,12.55
2022-12-22T16:28:49.719Z,14.50
2022-12-22T16:31:20.513Z,13.55
2022-12-22T16:33:49.162Z,18.45
2022-12-22T16:36:17.786Z,17.52
2022-12-22T16:38:47.680Z,16.27
2022-12-22T16:41:23.274Z,18.95
2022-12-22T16:43:58.289Z,20.63
2022-12-22T16:46:30.541Z,19.05
2022-12-22T16:49:02.236Z,13.57
2022-12-22T16:51:34.472Z,19.15
2022-12-22T16:54:03.664Z,20.10
2022-12-22T16:56:33.082Z,20.50
2022-12-22T16:59:04.761Z,13.60
2022-12-22T17:01:38.140Z,23.30
2022-12-22T17:04:10.787Z,23.63
2022-12-22T17:06:39.398Z,30.63
2022-12-22T17:09:12.853Z,27.98
2022-12-22T17:11:41.431Z,60.35
2022-12-22T17:14:29.500Z,43.95
2022-12-22T17:17:00.889Z,49.15
2022-12-22T17:21:59.041Z,39.33
2022-12-22T17:24:29.310Z,28.58
2022-12-22T17:27:01.205Z,29.35
2022-12-22T17:29:31.124Z,21.52
2022-12-22T17:31:59.465Z,20.13
2022-12-22T17:34:27.909Z,24.42
2022-12-22T17:36:58.928Z,26.92
2022-12-22T17:39:27.301Z,25.20
2022-12-22T17:41:57.413Z,24.83
2022-12-22T17:44:27.458Z,24.38
2022-12-22T17:46:57.323Z,28.60
2022-12-22T17:49:25.570Z,23.02
2022-12-22T17:51:53.870Z,28.77
2022-12-22T17:54:25.808Z,29.95
2022-12-22T17:56:58.997Z,35.72
2022-12-22T17:59:27.133Z,28.33
2022-12-22T18:01:56.856Z,35.45
2022-12-22T18:04:25.206Z,40.70
2022-12-22T18:06:53.400Z,34.60
2022-12-22T18:09:24.677Z,34.90
2022-12-22T18:11:53.212Z,36.75
2022-12-22T18:14:24.350Z,28.25
2022-12-22T18:16:52.729Z,31.45
2022-12-22T18:19:22.433Z,33.20
2022-12-22T18:21:50.748Z,32.30
2022-12-22T18:24:20.745Z,29.17
2022-12-22T18:26:49.292Z,31.15
2022-12-22T18:29:18.130Z,27.60
2022-12-22T18:31:46.924Z,29.25
2022-12-22T18:34:15.178Z,32.10
2022-12-22T18:36:45.876Z,26.58
2022-12-22T18:39:19.112Z,32.58
2022-12-22T18:41:48.237Z,42.83
2022-12-22T18:44:17.582Z,26.80
2022-12-22T18:46:45.956Z,28.17
2022-12-22T18:49:14.388Z,27.27
2022-12-22T18:51:45.691Z,30.63
2022-12-22T18:54:23.993Z,29.10
2022-12-22T18:56:52.319Z,26.25
2022-12-22T18:59:25.456Z,25.88
2022-12-22T19:01:53.989Z,25.02
2022-12-22T19:04:22.162Z,26.23
2022-12-22T19:06:51.743Z,29.42
2022-12-22T19:09:20.070Z,21.35
2022-12-22T19:11:48.431Z,23.88
2022-12-22T19:14:20.021Z,27.50
2022-12-22T19:16:49.005Z,28.83
2022-12-22T19:19:19.431Z,29.45
2022-12-22T19:21:48.755Z,33.13
2022-12-22T19:24:18.723Z,36.42
2022-12-22T19:26:46.992Z,36.33
2022-12-22T19:29:15.848Z,47.28
2022-12-22T19:31:45.257Z,39.22
2022-12-22T19:34:20.804Z,47.17
2022-12-22T19:36:49.702Z,39.90
2022-12-22T19:39:21.875Z,38.78
2022-12-22T19:41:52.264Z,42.13
2022-12-22T19:44:23.462Z,37.60
2022-12-22T19:46:52.504Z,38.50
2022-12-22T19:49:23.105Z,39.70
2022-12-22T19:51:51.751Z,38.78
2022-12-22T19:54:21.323Z,45.20
2022-12-22T19:56:52.124Z,43.22
2022-12-22T19:59:30.901Z,32.63
2022-12-22T20:02:01.519Z,39.90
2022-12-22T20:04:30.097Z,36.67
2022-12-22T20:06:58.204Z,37.35
2022-12-22T20:09:27.751Z,41.30
2022-12-22T20:11:55.929Z,47.58
2022-12-22T20:14:24.197Z,44.45
2022-12-22T20:16:52.373Z,46.85
2022-12-22T20:19:20.514Z,39.45
2022-12-22T20:21:48.652Z,42.85
2022-12-22T20:24:23.296Z,43.78
2022-12-22T20:26:54.724Z,46.60
2022-12-22T20:29:24.330Z,46.72
2022-12-22T20:31:52.875Z,36.33
2022-12-22T20:34:21.016Z,47.35
2022-12-22T20:36:49.409Z,47.60
2022-12-22T20:39:20.800Z,40.63
2022-12-22T20:41:53.300Z,41.50
2022-12-22T20:44:24.422Z,42.65
2022-12-22T20:46:52.770Z,44.13
2022-12-22T20:49:23.482Z,51.30
2022-12-22T20:51:51.713Z,50.20
2022-12-22T20:54:19.936Z,44.55
2022-12-22T20:56:48.082Z,42.50
2022-12-22T20:59:20.368Z,57.55
2022-12-22T21:01:51.161Z,75.13
2022-12-22T21:04:20.137Z,66.57
2022-12-22T21:06:51.213Z,69.35
2022-12-22T21:09:20.136Z,67.05
2022-12-22T21:11:48.346Z,62.08
2022-12-22T21:14:17.449Z,50.75
2022-12-22T21:16:45.663Z,48.65
2022-12-22T21:19:21.751Z,44.95
2022-12-22T21:21:49.888Z,48.88
2022-12-22T21:24:18.756Z,53.30
2022-12-22T21:26:50.327Z,78.78
2022-12-22T21:31:49.062Z,56.17
2022-12-22T21:34:18.735Z,72.70
2022-12-22T21:36:50.143Z,55.38
2022-12-22T21:42:05.296Z,59.58
2022-12-22T21:44:35.553Z,71.15
2022-12-22T21:47:04.171Z,78.38
2022-12-22T21:49:34.770Z,83.57
2022-12-22T21:52:03.230Z,93.65
2022-12-22T21:54:31.523Z,99.28
2022-12-22T21:56:59.658Z,99.03
2022-12-22T21:59:27.811Z,91.32
2022-12-22T22:01:56.752Z,76.50
2022-12-22T22:04:25.644Z,47.72
2022-12-22T22:06:55.206Z,38.90
2022-12-22T22:09:23.405Z,42.38
2022-12-22T22:12:09.032Z,40.92
2022-12-22T22:14:37.454Z,59.22
2022-12-22T22:17:05.864Z,61.47
2022-12-22T22:19:34.074Z,67.40
2022-12-22T22:22:03.766Z,58.30
2022-12-22T22:24:32.241Z,50.00
2022-12-22T22:27:00.426Z,45.03
2022-12-22T22:29:28.612Z,43.17
2022-12-22T22:31:56.936Z,50.88
2022-12-22T22:34:25.097Z,53.55
2022-12-22T22:36:53.800Z,45.92
2022-12-22T22:39:23.385Z,50.03
2022-12-22T22:41:51.631Z,44.33
2022-12-22T22:44:20.223Z,50.88
2022-12-22T22:46:48.598Z,51.92
2022-12-22T22:49:18.493Z,45.97
2022-12-22T22:51:49.392Z,51.35
2022-12-22T22:54:17.620Z,55.75
2022-12-22T22:56:47.198Z,63.88
2022-12-22T22:59:15.436Z,68.68
2022-12-22T23:01:43.772Z,87.18
2022-12-22T23:04:12.269Z,58.63
2022-12-22T23:06:41.890Z,56.08
2022-12-22T23:09:10.448Z,55.58
2022-12-22T23:11:38.837Z,75.00
2022-12-22T23:14:09.192Z,84.15
2022-12-22T23:16:38.809Z,141.55
2022-12-22T23:19:07.677Z,161.80
2022-12-22T23:21:36.005Z,120.88
2022-12-22T23:24:04.394Z,154.85
2022-12-22T23:26:32.623Z,317.50
2022-12-22T23:29:03.639Z,141.85
2022-12-22T23:31:34.276Z,80.15
2022-12-22T23:34:02.789Z,89.63
2022-12-22T23:36:31.455Z,63.42
2022-12-22T23:38:59.957Z,214.38
2022-12-22T23:41:28.185Z,145.35
2022-12-22T23:43:56.420Z,154.30
2022-12-22T23:46:24.802Z,137.52
2022-12-22T23:48:55.582Z,122.63
2022-12-22T23:51:26.721Z,237.20
2022-12-22T23:53:54.960Z,113.82
2022-12-22T23:56:23.561Z,143.75
2022-12-22T23:58:54.789Z,185.35
